12N

Aeroflex-Andover Airport

Andover, New Jersey, USA
METAR K12N 150754Z AUTO 00000KT M03/M09 A3057 RMK AO1 SLP363 T10281094
Observed Flight Rules
Nov-15 @ 07:54 UTC (32 minutes ago)
Temperatures Readings
Current -3°C / 27°F
Dewpoint -9°C / 16°F
Humidity 64%
Altimeter 30.57" Hg
Pressure 1036.3 hPa
Elevation 177
METAR K12N 150754Z AUTO 00000KT M03/M09 A3057 RMK AO1 SLP363 T10281094
Observed Flight Rules
Nov-15 @ 07:54 UTC
(32 minutes ago)
Temperature Dewpoint
-3°C / 27°F -9°C / 16°F
Humidity Altimeter Pressure
64% 30.57" Hg 1036.3 hPa